Time;durP1;ratioP1;P1;durP2;ratioP2;P2;SDS_P1;SDS_P2;PMS_P1;PMS_P2;Temp;Humidity;BMP_temperature;BMP_pressure;BME280_temperature;BME280_humidity;BME280_pressure;Samples;Min_cycle;Max_cycle;Signal;HPM_P1;HPM_P2
2021/09/21 00:04:15;;;;;;;12.93;7.78;;;;;;;13.29;69.19;101196.34;20728656;28;20066;-68
2021/09/21 00:14:18;;;;;;;10.95;7.80;;;;;;;13.21;71.18;101198.16;20729717;28;20042;-69
2021/09/21 00:24:20;;;;;;;11.90;8.63;;;;;;;12.95;73.45;101196.75;20729185;28;20046;-69
2021/09/21 00:34:26;;;;;;;12.10;8.35;;;;;;;12.86;73.76;101206.53;20727843;28;20420;-69
2021/09/21 00:44:27;;;;;;;13.63;8.23;;;;;;;12.65;75.93;101218.13;20728083;28;20042;-70
2021/09/21 00:54:30;;;;;;;14.77;8.70;;;;;;;12.63;76.00;101202.41;20727742;28;20467;-69
2021/09/21 01:04:32;;;;;;;13.50;9.18;;;;;;;12.63;75.42;101205.03;20727004;28;20049;-69
2021/09/21 01:14:34;;;;;;;12.20;8.50;;;;;;;12.64;75.76;101203.25;20734554;28;20038;-69
2021/09/21 01:24:36;;;;;;;12.23;9.25;;;;;;;12.45;77.27;101227.09;20743528;28;20101;-69
2021/09/21 01:34:38;;;;;;;18.05;10.10;;;;;;;12.44;77.58;101235.88;20742338;28;20411;-69
2021/09/21 01:44:40;;;;;;;15.18;9.25;;;;;;;12.32;77.40;101220.25;20741963;28;20088;-69
2021/09/21 02:05:12;;;;;;;15.43;9.32;;;;;;;11.80;79.87;101241.66;20686461;28;20038;-68
2021/09/21 02:15:14;;;;;;;15.30;9.60;;;;;;;11.51;82.11;101240.09;20740030;28;20046;-69
2021/09/21 02:25:16;;;;;;;14.68;10.20;;;;;;;11.44;81.57;101233.13;20738485;28;20709;-69
2021/09/21 02:35:18;;;;;;;16.77;10.93;;;;;;;11.37;82.57;101252.41;20737524;28;20520;-69
2021/09/21 02:45:20;;;;;;;16.92;11.32;;;;;;;11.30;82.88;101251.56;20737869;28;20416;-68
2021/09/21 02:55:22;;;;;;;18.30;11.00;;;;;;;11.42;82.86;101265.50;20736532;28;20049;-69
2021/09/21 03:05:27;;;;;;;15.25;10.52;;;;;;;11.64;82.78;101267.13;20735555;28;20041;-69
2021/09/21 03:25:49;;;;;;;15.77;10.32;;;;;;;11.92;81.01;101283.56;20734475;28;20096;-69
2021/09/21 03:35:52;;;;;;;14.43;10.25;;;;;;;12.01;80.45;101288.75;20732920;28;20050;-69
2021/09/21 03:45:53;;;;;;;17.70;10.88;;;;;;;12.13;80.20;101281.69;20732713;28;20057;-69
2021/09/21 03:55:55;;;;;;;17.10;10.45;;;;;;;12.13;79.74;101281.69;20732200;28;20393;-69
2021/09/21 04:05:56;;;;;;;15.93;10.68;;;;;;;12.11;80.38;101293.94;20731160;28;20104;-69
2021/09/21 04:15:58;;;;;;;16.40;10.98;;;;;;;12.12;80.43;101311.44;20730382;28;20041;-69
2021/09/21 04:26:00;;;;;;;17.30;11.32;;;;;;;12.23;78.58;101330.63;20731259;28;20038;-69
2021/09/21 04:36:03;;;;;;;18.15;11.13;;;;;;;12.17;78.38;101347.28;20729142;28;20052;-69
2021/09/21 04:46:07;;;;;;;15.57;11.50;;;;;;;12.15;78.26;101358.66;20727795;28;20116;-68
2021/09/21 04:56:09;;;;;;;17.77;11.52;;;;;;;12.07;77.07;101367.50;20746280;28;20109;-68
2021/09/21 05:06:11;;;;;;;16.23;11.60;;;;;;;12.19;76.46;101365.66;20745348;28;20768;-69
2021/09/21 05:16:13;;;;;;;15.85;11.60;;;;;;;12.07;76.69;101364.88;20744842;28;20046;-69
2021/09/21 05:26:16;;;;;;;17.88;11.88;;;;;;;12.03;76.96;101386.75;20743857;28;20392;-69
2021/09/21 05:36:17;;;;;;;20.55;12.75;;;;;;;12.15;76.78;101398.91;20743167;28;20466;-69
2021/09/21 05:46:20;;;;;;;16.90;11.93;;;;;;;12.09;77.33;101405.97;20743405;28;20042;-68
2021/09/21 05:56:22;;;;;;;22.05;12.27;;;;;;;12.16;77.04;101413.78;20740355;28;20050;-69
2021/09/21 06:06:24;;;;;;;15.27;11.90;;;;;;;12.25;77.25;101433.88;20737511;28;20115;-69
2021/09/21 06:16:26;;;;;;;17.17;12.77;;;;;;;12.39;76.69;101453.03;20734486;28;20049;-68
2021/09/21 06:26:31;;;;;;;19.02;12.80;;;;;;;12.55;75.92;101459.97;20737535;28;20053;-68
2021/09/21 06:36:33;;;;;;;16.00;11.88;;;;;;;12.55;75.74;101496.75;20737589;28;20095;-69
2021/09/21 06:46:35;;;;;;;18.27;12.07;;;;;;;12.61;75.13;101508.97;20736729;28;20104;-68
2021/09/21 06:56:37;;;;;;;17.23;10.68;;;;;;;12.64;74.52;101524.69;20735724;28;20046;-68
2021/09/21 07:06:38;;;;;;;13.52;10.40;;;;;;;12.46;74.35;101538.81;20736569;28;20042;-69
2021/09/21 07:16:41;;;;;;;17.35;10.95;;;;;;;12.74;72.88;101533.38;20743959;28;20092;-69
2021/09/21 07:26:46;;;;;;;14.63;10.43;;;;;;;13.05;72.25;101555.09;20740771;28;20046;-69
2021/09/21 07:36:51;;;;;;;;;;;;;;;13.19;71.28;101560.25;20738908;28;20512;-69
2021/09/21 07:46:58;;;;;;;17.25;11.07;;;;;;;13.28;70.08;101557.56;20747102;28;20283;-69
2021/09/21 07:57:02;;;;;;;18.42;10.80;;;;;;;13.30;70.27;101555.78;20737956;28;20050;-69
2021/09/21 08:07:07;;;;;;;16.65;10.77;;;;;;;13.52;69.84;101562.63;20737584;28;20046;-68
2021/09/21 08:17:09;;;;;;;17.02;11.38;;;;;;;14.09;67.24;101578.69;20739961;28;20485;-69
2021/09/21 08:27:12;;;;;;;12.80;10.00;;;;;;;13.98;67.18;101591.09;20744455;28;20048;-68
2021/09/21 08:37:15;;;;;;;13.63;10.63;;;;;;;14.37;64.76;101602.06;20742415;28;20097;-68
2021/09/21 08:47:17;;;;;;;15.95;9.95;;;;;;;14.60;64.72;101599.16;20734498;28;20120;-68
2021/09/21 08:57:20;;;;;;;14.80;9.20;;;;;;;15.13;62.40;101622.16;20734955;28;20050;-68
2021/09/21 09:07:21;;;;;;;11.57;8.65;;;;;;;15.11;59.58;101612.53;20733915;28;20050;-68
2021/09/21 09:17:23;;;;;;;13.30;8.73;;;;;;;15.42;58.12;101612.03;20733121;28;20045;-68
2021/09/21 09:27:49;;;;;;;9.50;7.00;;;;;;;15.52;57.03;101603.06;20732821;28;20562;-69
2021/09/21 09:37:51;;;;;;;10.32;6.95;;;;;;;15.54;54.90;101610.06;20742902;28;20757;-70
2021/09/21 09:47:54;;;;;;;12.90;7.57;;;;;;;15.60;53.71;101617.00;20747101;28;20511;-70
2021/09/21 09:57:56;;;;;;;11.05;7.60;;;;;;;15.70;53.97;101629.19;20746715;28;20749;-69
2021/09/21 10:07:58;;;;;;;11.48;7.40;;;;;;;16.48;53.52;101643.59;20745250;28;20042;-69
2021/09/21 10:18:01;;;;;;;9.88;6.57;;;;;;;16.11;50.43;101643.44;20747483;28;20411;-69
2021/09/21 10:28:18;;;;;;;9.65;6.55;;;;;;;16.31;51.02;101648.34;20743622;28;20046;-69
2021/09/21 10:38:21;;;;;;;9.98;6.10;;;;;;;16.47;49.32;101654.19;20745037;28;20050;-68
2021/09/21 10:48:23;;;;;;;8.85;6.35;;;;;;;16.23;49.59;101631.75;20741847;28;20104;-68
2021/09/21 10:58:25;;;;;;;8.55;6.07;;;;;;;16.53;51.93;101631.16;20738915;28;20053;-69
2021/09/21 11:08:31;;;;;;;9.40;6.50;;;;;;;16.43;49.90;101624.28;20742197;28;20496;-68
2021/09/21 11:18:34;;;;;;;9.82;6.57;;;;;;;16.17;49.25;101624.81;20738773;28;20385;-69
2021/09/21 11:28:42;;;;;;;10.50;5.73;;;;;;;16.23;50.49;101615.88;20739998;28;20054;-69
2021/09/21 11:38:51;;;;;;;9.20;6.28;;;;;;;16.07;49.71;101602.97;20737982;28;20053;-69
2021/09/21 11:48:54;;;;;;;15.15;7.15;;;;;;;16.34;48.41;101606.00;20742135;28;20060;-69
2021/09/21 11:59:00;;;;;;;8.15;5.40;;;;;;;16.46;51.10;101611.00;20734971;28;20443;-68
2021/09/21 12:09:06;;;;;;;9.70;6.40;;;;;;;16.67;47.70;101602.63;20736304;28;20125;-67
2021/09/21 12:19:16;;;;;;;8.20;5.72;;;;;;;16.82;46.29;101603.25;20736374;28;20038;-68
2021/09/21 12:29:18;;;;;;;10.32;5.32;;;;;;;16.89;47.49;101610.97;20737557;28;20050;-68
2021/09/21 12:39:22;;;;;;;8.05;4.80;;;;;;;17.19;44.99;101606.75;20734601;28;20069;-67
2021/09/21 12:49:31;;;;;;;8.30;5.03;;;;;;;17.25;45.05;101602.22;20734872;28;20045;-68
2021/09/21 12:59:32;;;;;;;8.57;5.03;;;;;;;16.94;45.18;101597.66;20733447;28;20050;-68
2021/09/21 13:09:34;;;;;;;9.98;5.40;;;;;;;17.26;44.58;101575.72;20738613;28;20407;-67
2021/09/21 13:19:36;;;;;;;9.05;5.65;;;;;;;17.25;44.15;101594.28;20747235;28;20112;-68
2021/09/21 13:29:37;;;;;;;11.38;5.82;;;;;;;17.34;45.05;101580.81;20748129;28;20131;-68
2021/09/21 13:39:39;;;;;;;8.18;5.45;;;;;;;17.39;45.90;101568.31;20744442;28;20550;-68
2021/09/21 13:49:41;;;;;;;9.10;6.03;;;;;;;17.32;45.73;101556.16;20746212;28;20053;-68
2021/09/21 13:59:42;;;;;;;9.25;5.55;;;;;;;17.46;45.92;101564.63;20749689;28;20117;-68
2021/09/21 14:09:48;;;;;;;9.43;5.80;;;;;;;17.41;44.63;101561.22;20749000;28;20462;-67
2021/09/21 14:19:49;;;;;;;8.23;5.80;;;;;;;17.36;43.55;101547.25;20747063;28;20053;-68
2021/09/21 14:29:51;;;;;;;9.60;5.55;;;;;;;17.34;46.62;101551.69;20744244;28;20079;-69
2021/09/21 14:39:53;;;;;;;8.43;5.93;;;;;;;17.37;44.65;101560.44;20741920;28;20423;-69
2021/09/21 14:49:55;;;;;;;9.52;6.65;;;;;;;17.57;44.24;101557.28;20740997;28;20484;-68
2021/09/21 14:59:56;;;;;;;10.38;6.97;;;;;;;17.80;44.24;101558.47;20741270;28;20120;-69
2021/09/21 15:09:58;;;;;;;10.52;6.57;;;;;;;17.38;46.55;101550.72;20739898;28;20149;-68
2021/09/21 15:20:02;;;;;;;9.70;6.32;;;;;;;17.21;45.47;101568.81;20739847;28;20046;-69
2021/09/21 15:30:08;;;;;;;9.32;6.30;;;;;;;17.34;44.43;101554.34;20741824;28;20096;-70
2021/09/21 15:40:12;;;;;;;11.55;7.28;;;;;;;17.10;45.42;101569.94;20738928;28;20503;-69
2021/09/21 15:50:16;;;;;;;9.82;6.85;;;;;;;17.11;46.62;101571.69;20732272;28;20042;-69
2021/09/21 16:00:22;;;;;;;10.67;7.13;;;;;;;16.87;47.03;101590.78;20736163;28;20116;-69
2021/09/21 16:10:27;;;;;;;12.52;7.78;;;;;;;16.87;47.70;101591.66;20736344;28;20465;-68
2021/09/21 16:20:31;;;;;;;10.75;7.43;;;;;;;16.76;48.50;101598.94;20735469;28;20049;-67
2021/09/21 16:30:34;;;;;;;10.55;6.80;;;;;;;16.48;49.86;101603.94;20738709;28;20427;-68
2021/09/21 16:40:41;;;;;;;10.07;5.70;;;;;;;16.33;51.42;101613.03;20737320;28;20112;-67
2021/09/21 16:50:44;;;;;;;12.40;6.22;;;;;;;16.16;52.45;101629.22;20737912;28;20409;-68
2021/09/21 17:00:47;;;;;;;10.75;5.70;;;;;;;15.99;55.28;101636.59;20727012;28;20459;-68
2021/09/21 17:10:49;;;;;;;8.95;5.40;;;;;;;15.56;57.71;101636.44;20734610;28;20072;-68
2021/09/21 17:20:52;;;;;;;12.45;6.43;;;;;;;15.24;60.72;101655.44;20737864;28;20381;-68
2021/09/21 17:30:53;;;;;;;9.48;6.28;;;;;;;14.76;61.80;101664.00;20740404;28;20038;-68
2021/09/21 17:40:55;;;;;;;10.77;6.28;;;;;;;14.52;63.57;101664.31;20731780;28;20129;-67
2021/09/21 17:50:58;;;;;;;8.85;5.90;;;;;;;14.28;61.66;101673.31;20730747;28;20108;-67
2021/09/21 18:01:00;;;;;;;11.30;5.70;;;;;;;14.54;57.72;101679.19;20743654;28;20092;-67
2021/09/21 18:11:02;;;;;;;11.82;5.22;;;;;;;14.46;57.85;101686.28;20735452;28;20050;-69
2021/09/21 18:21:30;;;;;;;9.27;5.70;;;;;;;14.18;59.20;101700.63;20741504;28;20243;-69
2021/09/21 18:31:32;;;;;;;10.88;5.07;;;;;;;14.06;59.62;101693.72;20742804;28;20069;-69
2021/09/21 18:41:34;;;;;;;6.93;4.32;;;;;;;13.91;60.42;101707.91;20745536;28;20087;-69
2021/09/21 18:51:35;;;;;;;10.20;4.50;;;;;;;13.82;60.57;101707.97;20742289;28;20064;-69
2021/09/21 19:01:37;;;;;;;7.40;4.53;;;;;;;13.63;61.37;101706.38;20741015;28;20069;-69
2021/09/21 19:11:39;;;;;;;11.63;4.65;;;;;;;13.51;61.62;101709.94;20738505;28;20058;-69
2021/09/21 19:21:40;;;;;;;9.02;4.82;;;;;;;13.33;62.23;101709.22;20738747;28;20495;-69
2021/09/21 19:31:42;;;;;;;8.65;4.10;;;;;;;13.16;63.40;101707.53;20739193;28;20072;-69
2021/09/21 19:41:45;;;;;;;7.82;4.65;;;;;;;12.98;64.30;101708.47;20738149;28;20136;-69
2021/09/21 19:51:47;;;;;;;10.70;4.75;;;;;;;12.63;66.22;101727.88;20737252;28;20455;-69
2021/09/21 20:01:49;;;;;;;9.43;5.28;;;;;;;12.63;66.32;101724.38;20734788;28;20454;-68
2021/09/21 20:11:52;;;;;;;9.88;5.00;;;;;;;12.31;67.35;101725.31;20736364;28;20038;-68
2021/09/21 20:21:54;;;;;;;9.43;4.97;;;;;;;12.17;68.12;101734.97;20727497;28;20103;-69
2021/09/21 20:31:55;;;;;;;8.02;4.60;;;;;;;12.09;68.28;101736.75;20729311;28;20096;-68
2021/09/21 20:41:57;;;;;;;9.05;5.72;;;;;;;11.78;69.28;101736.69;20737766;28;20085;-69
2021/09/21 20:51:59;;;;;;;8.93;4.75;;;;;;;11.65;70.77;101746.31;20734300;28;20042;-69
2021/09/21 21:02:01;;;;;;;9.20;4.97;;;;;;;11.53;71.00;101741.03;20738761;28;20092;-69
2021/09/21 21:12:03;;;;;;;12.55;5.30;;;;;;;11.35;73.09;101734.00;20743135;28;20038;-70
2021/09/21 21:22:05;;;;;;;10.30;5.50;;;;;;;11.20;73.67;101734.84;20738359;28;20053;-70
2021/09/21 21:32:07;;;;;;;12.18;5.22;;;;;;;11.08;74.33;101739.19;20748655;28;20542;-70
2021/09/21 21:42:09;;;;;;;9.30;5.22;;;;;;;10.85;75.45;101760.03;20747659;28;20562;-70
2021/09/21 21:52:11;;;;;;;10.55;5.57;;;;;;;10.66;76.43;101769.53;20746844;28;20464;-70
2021/09/21 22:02:13;;;;;;;11.05;5.80;;;;;;;10.62;75.75;101773.00;20745632;28;20084;-70
2021/09/21 22:12:16;;;;;;;13.50;6.03;;;;;;;10.64;75.79;101776.53;20743049;28;20058;-70
2021/09/21 22:22:18;;;;;;;12.82;6.05;;;;;;;10.62;76.10;101793.97;20754779;28;20496;-70
2021/09/21 22:32:20;;;;;;;9.98;5.53;;;;;;;10.57;76.69;101775.59;20741031;28;20488;-72
2021/09/21 22:42:23;;;;;;;12.55;5.70;;;;;;;10.48;76.18;101765.06;20744457;28;20686;-70
2021/09/21 22:52:24;;;;;;;12.13;5.90;;;;;;;10.18;78.09;101757.84;20748861;28;20046;-70
2021/09/21 23:02:29;;;;;;;10.02;5.47;;;;;;;10.07;79.86;101762.13;20740130;28;20401;-70
2021/09/21 23:12:31;;;;;;;11.98;5.88;;;;;;;9.94;79.76;101753.28;20739675;28;20103;-71
2021/09/21 23:22:33;;;;;;;10.93;6.10;;;;;;;9.92;78.60;101768.09;20757714;28;20096;-70
2021/09/21 23:32:37;;;;;;;12.30;6.60;;;;;;;9.92;79.33;101745.44;20741201;28;20073;-70
2021/09/21 23:42:39;;;;;;;9.63;6.10;;;;;;;9.86;79.56;101737.50;20733403;28;20042;-70
2021/09/21 23:52:42;;;;;;;11.88;5.95;;;;;;;9.82;78.88;101743.59;20731303;28;20188;-70
